sensor_id;sensor_type;location;lat;lon;timestamp;P1;durP1;ratioP1;P2;durP2;ratioP2
56593;SDS011;42474;51.660;5.824;2024-02-16T00:01:52;6.05;;;2.88;;
56593;SDS011;42474;51.660;5.824;2024-02-16T00:05:52;5.17;;;2.96;;
56593;SDS011;42474;51.660;5.824;2024-02-16T00:09:52;5.51;;;3.12;;
56593;SDS011;42474;51.660;5.824;2024-02-16T00:13:52;5.71;;;3.13;;
56593;SDS011;42474;51.660;5.824;2024-02-16T00:17:52;7.13;;;2.92;;
56593;SDS011;42474;51.660;5.824;2024-02-16T00:21:52;5.66;;;3.25;;
56593;SDS011;42474;51.660;5.824;2024-02-16T00:25:52;6.55;;;3.15;;
56593;SDS011;42474;51.660;5.824;2024-02-16T00:29:52;6.88;;;3.36;;
56593;SDS011;42474;51.660;5.824;2024-02-16T00:33:52;6.55;;;3.76;;
56593;SDS011;42474;51.660;5.824;2024-02-16T00:37:52;9.23;;;3.54;;
56593;SDS011;42474;51.660;5.824;2024-02-16T00:41:52;6.31;;;3.31;;
56593;SDS011;42474;51.660;5.824;2024-02-16T00:45:52;6.31;;;2.97;;
56593;SDS011;42474;51.660;5.824;2024-02-16T00:49:52;4.42;;;2.69;;
56593;SDS011;42474;51.660;5.824;2024-02-16T00:53:52;4.64;;;2.84;;
56593;SDS011;42474;51.660;5.824;2024-02-16T00:57:52;5.57;;;3.18;;
56593;SDS011;42474;51.660;5.824;2024-02-16T01:01:52;7.35;;;3.28;;
56593;SDS011;42474;51.660;5.824;2024-02-16T01:05:52;7.21;;;3.1;;
56593;SDS011;42474;51.660;5.824;2024-02-16T01:09:52;6.97;;;3.05;;
56593;SDS011;42474;51.660;5.824;2024-02-16T01:13:52;7.24;;;3.71;;
56593;SDS011;42474;51.660;5.824;2024-02-16T01:17:52;7.4;;;3.26;;
56593;SDS011;42474;51.660;5.824;2024-02-16T01:21:52;5.9;;;3.47;;
56593;SDS011;42474;51.660;5.824;2024-02-16T01:25:52;5.33;;;3.52;;
56593;SDS011;42474;51.660;5.824;2024-02-16T01:29:52;6.4;;;3.57;;
56593;SDS011;42474;51.660;5.824;2024-02-16T01:33:52;6.25;;;3.8;;
56593;SDS011;42474;51.660;5.824;2024-02-16T01:37:52;9.08;;;4.16;;
56593;SDS011;42474;51.660;5.824;2024-02-16T01:41:52;6.65;;;3.41;;
56593;SDS011;42474;51.660;5.824;2024-02-16T01:45:52;5.86;;;3.24;;
56593;SDS011;42474;51.660;5.824;2024-02-16T01:49:52;4.93;;;3.45;;
56593;SDS011;42474;51.660;5.824;2024-02-16T01:53:52;6.09;;;3.38;;
56593;SDS011;42474;51.660;5.824;2024-02-16T01:57:52;5.82;;;3.59;;
56593;SDS011;42474;51.660;5.824;2024-02-16T02:01:52;8.27;;;3.55;;
56593;SDS011;42474;51.660;5.824;2024-02-16T02:05:52;6.85;;;3.68;;
56593;SDS011;42474;51.660;5.824;2024-02-16T02:09:52;4.88;;;3.59;;
56593;SDS011;42474;51.660;5.824;2024-02-16T02:13:52;5.93;;;3.28;;
56593;SDS011;42474;51.660;5.824;2024-02-16T02:17:52;4.28;;;3.26;;
56593;SDS011;42474;51.660;5.824;2024-02-16T02:21:52;6.64;;;3.43;;
56593;SDS011;42474;51.660;5.824;2024-02-16T02:25:52;4.38;;;3.16;;
56593;SDS011;42474;51.660;5.824;2024-02-16T02:29:52;6.19;;;3.45;;
56593;SDS011;42474;51.660;5.824;2024-02-16T02:33:52;6.04;;;3.51;;
56593;SDS011;42474;51.660;5.824;2024-02-16T02:37:52;5.97;;;3.26;;
56593;SDS011;42474;51.660;5.824;2024-02-16T02:41:52;5.34;;;3.37;;
56593;SDS011;42474;51.660;5.824;2024-02-16T02:45:52;6.03;;;3.24;;
56593;SDS011;42474;51.660;5.824;2024-02-16T02:49:52;4.64;;;3.34;;
56593;SDS011;42474;51.660;5.824;2024-02-16T02:53:52;5.13;;;3.55;;
56593;SDS011;42474;51.660;5.824;2024-02-16T02:57:52;4.67;;;3.44;;
56593;SDS011;42474;51.660;5.824;2024-02-16T03:01:52;5.02;;;3.01;;
56593;SDS011;42474;51.660;5.824;2024-02-16T03:05:52;4.38;;;3.34;;
56593;SDS011;42474;51.660;5.824;2024-02-16T03:09:52;5.87;;;3.76;;
56593;SDS011;42474;51.660;5.824;2024-02-16T03:13:52;9.7;;;3.6;;
56593;SDS011;42474;51.660;5.824;2024-02-16T03:17:52;5.99;;;3.35;;
56593;SDS011;42474;51.660;5.824;2024-02-16T03:21:52;4.26;;;3.26;;
56593;SDS011;42474;51.660;5.824;2024-02-16T03:25:52;4.5;;;3.36;;
56593;SDS011;42474;51.660;5.824;2024-02-16T03:29:52;5.5;;;3.19;;
56593;SDS011;42474;51.660;5.824;2024-02-16T03:33:52;4.97;;;3.45;;
56593;SDS011;42474;51.660;5.824;2024-02-16T03:37:52;5.27;;;3.51;;
56593;SDS011;42474;51.660;5.824;2024-02-16T03:41:52;5.3;;;3.46;;
56593;SDS011;42474;51.660;5.824;2024-02-16T03:45:52;4.91;;;3.3;;
56593;SDS011;42474;51.660;5.824;2024-02-16T03:49:52;7.72;;;3.56;;
56593;SDS011;42474;51.660;5.824;2024-02-16T03:53:52;6.13;;;3.83;;
56593;SDS011;42474;51.660;5.824;2024-02-16T03:57:52;6.57;;;3.4;;
56593;SDS011;42474;51.660;5.824;2024-02-16T04:01:52;6.36;;;3.8;;
56593;SDS011;42474;51.660;5.824;2024-02-16T04:05:52;4.17;;;3.19;;
56593;SDS011;42474;51.660;5.824;2024-02-16T04:09:52;6.85;;;3.57;;
56593;SDS011;42474;51.660;5.824;2024-02-16T04:13:52;6.77;;;3.58;;
56593;SDS011;42474;51.660;5.824;2024-02-16T04:17:53;4.51;;;3.62;;
56593;SDS011;42474;51.660;5.824;2024-02-16T04:21:52;6.96;;;3.96;;
56593;SDS011;42474;51.660;5.824;2024-02-16T04:25:52;5.69;;;3.89;;
56593;SDS011;42474;51.660;5.824;2024-02-16T04:29:52;5.06;;;3.62;;
56593;SDS011;42474;51.660;5.824;2024-02-16T04:33:52;5.54;;;3.96;;
56593;SDS011;42474;51.660;5.824;2024-02-16T04:37:52;5.68;;;3.71;;
56593;SDS011;42474;51.660;5.824;2024-02-16T04:41:52;5.38;;;3.62;;
56593;SDS011;42474;51.660;5.824;2024-02-16T04:45:52;4.56;;;3.73;;
56593;SDS011;42474;51.660;5.824;2024-02-16T04:49:52;6.46;;;4.22;;
56593;SDS011;42474;51.660;5.824;2024-02-16T04:53:52;5.57;;;3.63;;
56593;SDS011;42474;51.660;5.824;2024-02-16T04:57:52;6.11;;;3.72;;
56593;SDS011;42474;51.660;5.824;2024-02-16T05:01:52;5.74;;;3.58;;
56593;SDS011;42474;51.660;5.824;2024-02-16T05:05:52;5.67;;;3.79;;
56593;SDS011;42474;51.660;5.824;2024-02-16T05:09:52;5.36;;;3.76;;
56593;SDS011;42474;51.660;5.824;2024-02-16T05:13:52;5.07;;;3.9;;
56593;SDS011;42474;51.660;5.824;2024-02-16T05:17:52;4.27;;;3.04;;
56593;SDS011;42474;51.660;5.824;2024-02-16T05:21:52;5.48;;;3.72;;
56593;SDS011;42474;51.660;5.824;2024-02-16T05:25:52;5.38;;;3.4;;
56593;SDS011;42474;51.660;5.824;2024-02-16T05:29:52;9.51;;;5.11;;
56593;SDS011;42474;51.660;5.824;2024-02-16T05:33:52;5.09;;;3.72;;
56593;SDS011;42474;51.660;5.824;2024-02-16T05:37:52;6.46;;;3.92;;
56593;SDS011;42474;51.660;5.824;2024-02-16T05:41:52;6.87;;;3.75;;
56593;SDS011;42474;51.660;5.824;2024-02-16T05:45:52;5.12;;;3.58;;
56593;SDS011;42474;51.660;5.824;2024-02-16T05:49:52;7.29;;;3.43;;
56593;SDS011;42474;51.660;5.824;2024-02-16T05:53:52;5.68;;;3.79;;
56593;SDS011;42474;51.660;5.824;2024-02-16T05:57:52;6.17;;;3.88;;
56593;SDS011;42474;51.660;5.824;2024-02-16T06:01:52;5.6;;;3.7;;
56593;SDS011;42474;51.660;5.824;2024-02-16T06:05:52;5.92;;;3.64;;
56593;SDS011;42474;51.660;5.824;2024-02-16T06:09:54;6.31;;;3.99;;
56593;SDS011;42474;51.660;5.824;2024-02-16T06:13:53;6.65;;;3.92;;
56593;SDS011;42474;51.660;5.824;2024-02-16T06:17:52;5.83;;;3.55;;
56593;SDS011;42474;51.660;5.824;2024-02-16T06:21:53;6.02;;;3.72;;
56593;SDS011;42474;51.660;5.824;2024-02-16T06:25:53;7.13;;;3.55;;
56593;SDS011;42474;51.660;5.824;2024-02-16T06:29:52;5.78;;;3.06;;
56593;SDS011;42474;51.660;5.824;2024-02-16T06:33:53;5.99;;;3.61;;
56593;SDS011;42474;51.660;5.824;2024-02-16T06:37:53;6.19;;;3.34;;
56593;SDS011;42474;51.660;5.824;2024-02-16T06:41:52;6.63;;;3.61;;
56593;SDS011;42474;51.660;5.824;2024-02-16T06:45:53;6.57;;;3.68;;
56593;SDS011;42474;51.660;5.824;2024-02-16T06:49:52;4.99;;;3.11;;
56593;SDS011;42474;51.660;5.824;2024-02-16T06:53:53;5.9;;;3.6;;
56593;SDS011;42474;51.660;5.824;2024-02-16T06:57:52;7.88;;;3.63;;
56593;SDS011;42474;51.660;5.824;2024-02-16T07:01:52;6.37;;;3.85;;
56593;SDS011;42474;51.660;5.824;2024-02-16T07:05:53;5.11;;;3.28;;
56593;SDS011;42474;51.660;5.824;2024-02-16T07:09:52;6.47;;;3.69;;
56593;SDS011;42474;51.660;5.824;2024-02-16T07:13:52;6.69;;;4.12;;
56593;SDS011;42474;51.660;5.824;2024-02-16T07:17:53;7.46;;;3.96;;
56593;SDS011;42474;51.660;5.824;2024-02-16T07:21:52;5.62;;;3.81;;
56593;SDS011;42474;51.660;5.824;2024-02-16T07:25:52;5.89;;;3.56;;
56593;SDS011;42474;51.660;5.824;2024-02-16T07:33:53;5.41;;;3.63;;
56593;SDS011;42474;51.660;5.824;2024-02-16T07:37:53;7.78;;;3.41;;
56593;SDS011;42474;51.660;5.824;2024-02-16T07:41:53;5.78;;;3.73;;
56593;SDS011;42474;51.660;5.824;2024-02-16T07:45:53;7.17;;;3.43;;
56593;SDS011;42474;51.660;5.824;2024-02-16T07:49:53;8.45;;;3.51;;
56593;SDS011;42474;51.660;5.824;2024-02-16T07:53:52;6.11;;;3.19;;
56593;SDS011;42474;51.660;5.824;2024-02-16T07:57:53;5.96;;;3.29;;
56593;SDS011;42474;51.660;5.824;2024-02-16T08:01:52;8.71;;;3.88;;
56593;SDS011;42474;51.660;5.824;2024-02-16T08:05:52;7;;;3.54;;
56593;SDS011;42474;51.660;5.824;2024-02-16T08:09:55;5.67;;;3.55;;
56593;SDS011;42474;51.660;5.824;2024-02-16T08:13:55;7.01;;;3.67;;
56593;SDS011;42474;51.660;5.824;2024-02-16T08:17:53;7.26;;;3.37;;
56593;SDS011;42474;51.660;5.824;2024-02-16T08:21:53;6.5;;;3.49;;
56593;SDS011;42474;51.660;5.824;2024-02-16T08:25:52;8.76;;;3.95;;
56593;SDS011;42474;51.660;5.824;2024-02-16T08:29:54;5.23;;;3.46;;
56593;SDS011;42474;51.660;5.824;2024-02-16T08:33:52;7.5;;;3.76;;
56593;SDS011;42474;51.660;5.824;2024-02-16T08:37:53;6.13;;;3.94;;
56593;SDS011;42474;51.660;5.824;2024-02-16T08:41:52;6.96;;;3.92;;
56593;SDS011;42474;51.660;5.824;2024-02-16T08:45:52;8.23;;;3.79;;
56593;SDS011;42474;51.660;5.824;2024-02-16T08:49:53;6.81;;;4.05;;
56593;SDS011;42474;51.660;5.824;2024-02-16T08:53:52;7.38;;;3.98;;
56593;SDS011;42474;51.660;5.824;2024-02-16T08:57:53;7.36;;;3.7;;
56593;SDS011;42474;51.660;5.824;2024-02-16T09:01:53;9.49;;;4.02;;
56593;SDS011;42474;51.660;5.824;2024-02-16T09:05:54;8.45;;;3.88;;
56593;SDS011;42474;51.660;5.824;2024-02-16T09:09:53;10.43;;;4.49;;
56593;SDS011;42474;51.660;5.824;2024-02-16T09:13:53;12.22;;;5.33;;
56593;SDS011;42474;51.660;5.824;2024-02-16T09:17:53;9.17;;;5.38;;
56593;SDS011;42474;51.660;5.824;2024-02-16T09:21:53;7.36;;;5.54;;
56593;SDS011;42474;51.660;5.824;2024-02-16T09:25:52;7.5;;;4.57;;
56593;SDS011;42474;51.660;5.824;2024-02-16T09:29:52;7.2;;;4.46;;
56593;SDS011;42474;51.660;5.824;2024-02-16T09:33:53;8.22;;;4.62;;
56593;SDS011;42474;51.660;5.824;2024-02-16T09:37:53;8.53;;;4.76;;
56593;SDS011;42474;51.660;5.824;2024-02-16T09:41:54;8.65;;;4.15;;
56593;SDS011;42474;51.660;5.824;2024-02-16T09:45:55;6.7;;;4.23;;
56593;SDS011;42474;51.660;5.824;2024-02-16T09:49:52;6.96;;;3.8;;
56593;SDS011;42474;51.660;5.824;2024-02-16T09:53:53;10.47;;;4.6;;
56593;SDS011;42474;51.660;5.824;2024-02-16T09:57:58;7.03;;;4.26;;
56593;SDS011;42474;51.660;5.824;2024-02-16T10:02:00;10.58;;;5.05;;
56593;SDS011;42474;51.660;5.824;2024-02-16T10:06:03;10.52;;;5.02;;
56593;SDS011;42474;51.660;5.824;2024-02-16T10:09:52;8.03;;;4.93;;
56593;SDS011;42474;51.660;5.824;2024-02-16T10:13:57;8.06;;;5.4;;
56593;SDS011;42474;51.660;5.824;2024-02-16T10:17:59;7.89;;;4.86;;
56593;SDS011;42474;51.660;5.824;2024-02-16T10:21:53;10.04;;;5.7;;
56593;SDS011;42474;51.660;5.824;2024-02-16T10:25:54;10.56;;;5.84;;
56593;SDS011;42474;51.660;5.824;2024-02-16T10:29:54;11.29;;;5.85;;
56593;SDS011;42474;51.660;5.824;2024-02-16T10:33:55;11.38;;;6.27;;
56593;SDS011;42474;51.660;5.824;2024-02-16T10:37:53;11.64;;;6.36;;
56593;SDS011;42474;51.660;5.824;2024-02-16T10:41:54;10.48;;;5.96;;
56593;SDS011;42474;51.660;5.824;2024-02-16T10:45:54;9.77;;;5.96;;
56593;SDS011;42474;51.660;5.824;2024-02-16T10:49:52;9.44;;;5.92;;
56593;SDS011;42474;51.660;5.824;2024-02-16T10:53:54;10.88;;;5.7;;
56593;SDS011;42474;51.660;5.824;2024-02-16T10:57:56;9.78;;;5.64;;
56593;SDS011;42474;51.660;5.824;2024-02-16T11:02:01;12.35;;;6.1;;
56593;SDS011;42474;51.660;5.824;2024-02-16T11:05:53;10.58;;;6.33;;
56593;SDS011;42474;51.660;5.824;2024-02-16T11:09:53;12.45;;;7.37;;
56593;SDS011;42474;51.660;5.824;2024-02-16T11:13:55;14.32;;;6.8;;
56593;SDS011;42474;51.660;5.824;2024-02-16T11:17:56;14.48;;;7.06;;
56593;SDS011;42474;51.660;5.824;2024-02-16T11:21:57;12.02;;;6.17;;
56593;SDS011;42474;51.660;5.824;2024-02-16T11:25:53;10.65;;;6.55;;
56593;SDS011;42474;51.660;5.824;2024-02-16T11:29:53;10.37;;;6.57;;
56593;SDS011;42474;51.660;5.824;2024-02-16T11:33:53;11.56;;;6.51;;
56593;SDS011;42474;51.660;5.824;2024-02-16T11:37:52;11.77;;;6.83;;
56593;SDS011;42474;51.660;5.824;2024-02-16T11:42:00;11.42;;;7.06;;
56593;SDS011;42474;51.660;5.824;2024-02-16T11:45:52;14.23;;;7.94;;
56593;SDS011;42474;51.660;5.824;2024-02-16T11:50:01;12.25;;;6.83;;
56593;SDS011;42474;51.660;5.824;2024-02-16T11:53:55;12.87;;;7.32;;
56593;SDS011;42474;51.660;5.824;2024-02-16T11:57:52;12.72;;;7.54;;
56593;SDS011;42474;51.660;5.824;2024-02-16T12:01:55;16.03;;;8.01;;
56593;SDS011;42474;51.660;5.824;2024-02-16T12:05:53;17.19;;;8.52;;
56593;SDS011;42474;51.660;5.824;2024-02-16T12:09:56;11.77;;;7.52;;
56593;SDS011;42474;51.660;5.824;2024-02-16T12:13:52;13.54;;;7.65;;
56593;SDS011;42474;51.660;5.824;2024-02-16T12:18:00;13.35;;;9.28;;
56593;SDS011;42474;51.660;5.824;2024-02-16T12:21:53;12.38;;;7.96;;
56593;SDS011;42474;51.660;5.824;2024-02-16T12:25:52;14.11;;;9.27;;
56593;SDS011;42474;51.660;5.824;2024-02-16T12:29:53;14.48;;;9.59;;
56593;SDS011;42474;51.660;5.824;2024-02-16T12:33:53;16.5;;;10.41;;
56593;SDS011;42474;51.660;5.824;2024-02-16T12:37:52;13.5;;;10.55;;
56593;SDS011;42474;51.660;5.824;2024-02-16T12:41:52;15.38;;;9.84;;
56593;SDS011;42474;51.660;5.824;2024-02-16T12:45:52;11.74;;;9.72;;
56593;SDS011;42474;51.660;5.824;2024-02-16T12:49:56;12.06;;;9.43;;
56593;SDS011;42474;51.660;5.824;2024-02-16T12:53:52;13.57;;;9.48;;
56593;SDS011;42474;51.660;5.824;2024-02-16T12:57:52;13.21;;;9.44;;
56593;SDS011;42474;51.660;5.824;2024-02-16T13:01:52;12.27;;;8.68;;
56593;SDS011;42474;51.660;5.824;2024-02-16T13:05:53;12.87;;;8.71;;
56593;SDS011;42474;51.660;5.824;2024-02-16T13:09:52;11.34;;;9.34;;
56593;SDS011;42474;51.660;5.824;2024-02-16T13:13:52;11.86;;;9.43;;
56593;SDS011;42474;51.660;5.824;2024-02-16T13:17:52;12.42;;;9.27;;
56593;SDS011;42474;51.660;5.824;2024-02-16T13:21:52;11.55;;;8.97;;
56593;SDS011;42474;51.660;5.824;2024-02-16T13:25:52;13.51;;;9.29;;
56593;SDS011;42474;51.660;5.824;2024-02-16T13:29:52;10.74;;;8.49;;
56593;SDS011;42474;51.660;5.824;2024-02-16T13:33:53;11.66;;;8.32;;
56593;SDS011;42474;51.660;5.824;2024-02-16T13:37:52;10.71;;;8.07;;
56593;SDS011;42474;51.660;5.824;2024-02-16T13:41:52;7.2;;;6.46;;
56593;SDS011;42474;51.660;5.824;2024-02-16T13:45:53;9.17;;;7.33;;
56593;SDS011;42474;51.660;5.824;2024-02-16T13:49:52;12.18;;;8.42;;
56593;SDS011;42474;51.660;5.824;2024-02-16T13:53:53;13.53;;;11.06;;
56593;SDS011;42474;51.660;5.824;2024-02-16T13:57:52;13.08;;;10.48;;
56593;SDS011;42474;51.660;5.824;2024-02-16T14:01:52;12.35;;;9.95;;
56593;SDS011;42474;51.660;5.824;2024-02-16T14:05:52;11.72;;;9.28;;
56593;SDS011;42474;51.660;5.824;2024-02-16T14:09:52;12.5;;;8.83;;
56593;SDS011;42474;51.660;5.824;2024-02-16T14:13:52;11.62;;;9.26;;
56593;SDS011;42474;51.660;5.824;2024-02-16T14:17:52;8.92;;;7.93;;
56593;SDS011;42474;51.660;5.824;2024-02-16T14:21:52;9.6;;;7.32;;
56593;SDS011;42474;51.660;5.824;2024-02-16T14:29:52;8.68;;;6.98;;
56593;SDS011;42474;51.660;5.824;2024-02-16T14:33:52;8.6;;;7.37;;
56593;SDS011;42474;51.660;5.824;2024-02-16T14:37:52;7.69;;;5.83;;
56593;SDS011;42474;51.660;5.824;2024-02-16T14:45:52;9.62;;;7.11;;
56593;SDS011;42474;51.660;5.824;2024-02-16T14:49:52;9.07;;;7.8;;
56593;SDS011;42474;51.660;5.824;2024-02-16T14:53:52;11.35;;;7.88;;
56593;SDS011;42474;51.660;5.824;2024-02-16T14:57:52;7.56;;;6.47;;
56593;SDS011;42474;51.660;5.824;2024-02-16T15:01:52;9.1;;;7.06;;
56593;SDS011;42474;51.660;5.824;2024-02-16T15:05:52;8.52;;;6.93;;
56593;SDS011;42474;51.660;5.824;2024-02-16T15:09:52;8.08;;;6.38;;
56593;SDS011;42474;51.660;5.824;2024-02-16T15:13:52;8.3;;;7.47;;
56593;SDS011;42474;51.660;5.824;2024-02-16T15:21:52;7.1;;;6.43;;
56593;SDS011;42474;51.660;5.824;2024-02-16T15:25:52;8.5;;;6.98;;
56593;SDS011;42474;51.660;5.824;2024-02-16T15:29:52;7.88;;;6.76;;
56593;SDS011;42474;51.660;5.824;2024-02-16T15:33:52;7.71;;;6.79;;
56593;SDS011;42474;51.660;5.824;2024-02-16T15:37:52;8.14;;;6.86;;
56593;SDS011;42474;51.660;5.824;2024-02-16T15:41:52;9.14;;;8.06;;
56593;SDS011;42474;51.660;5.824;2024-02-16T15:45:52;8.34;;;7.52;;
56593;SDS011;42474;51.660;5.824;2024-02-16T15:49:52;9.05;;;8.15;;
56593;SDS011;42474;51.660;5.824;2024-02-16T15:53:52;8.82;;;7.97;;
56593;SDS011;42474;51.660;5.824;2024-02-16T15:57:52;8.92;;;8.06;;
56593;SDS011;42474;51.660;5.824;2024-02-16T16:01:52;9.63;;;8.7;;
56593;SDS011;42474;51.660;5.824;2024-02-16T16:05:53;9.71;;;8.61;;
56593;SDS011;42474;51.660;5.824;2024-02-16T16:09:53;9.32;;;8.34;;
56593;SDS011;42474;51.660;5.824;2024-02-16T16:13:52;7.57;;;6.87;;
56593;SDS011;42474;51.660;5.824;2024-02-16T16:17:52;8.77;;;7.86;;
56593;SDS011;42474;51.660;5.824;2024-02-16T16:21:52;8.85;;;7.91;;
56593;SDS011;42474;51.660;5.824;2024-02-16T16:25:53;9.53;;;8.42;;
56593;SDS011;42474;51.660;5.824;2024-02-16T16:29:52;9.73;;;8.47;;
56593;SDS011;42474;51.660;5.824;2024-02-16T16:33:52;10.51;;;9.1;;
56593;SDS011;42474;51.660;5.824;2024-02-16T16:37:52;10.04;;;8.86;;
56593;SDS011;42474;51.660;5.824;2024-02-16T16:41:52;12.15;;;9.52;;
56593;SDS011;42474;51.660;5.824;2024-02-16T16:45:52;10.36;;;9.38;;
56593;SDS011;42474;51.660;5.824;2024-02-16T16:49:52;12.88;;;11.36;;
56593;SDS011;42474;51.660;5.824;2024-02-16T16:53:52;13.42;;;11.56;;
56593;SDS011;42474;51.660;5.824;2024-02-16T16:57:52;13.62;;;11.97;;
56593;SDS011;42474;51.660;5.824;2024-02-16T17:01:53;14.22;;;12.61;;
56593;SDS011;42474;51.660;5.824;2024-02-16T17:09:54;13.14;;;11.79;;
56593;SDS011;42474;51.660;5.824;2024-02-16T17:13:54;15.43;;;13.38;;
56593;SDS011;42474;51.660;5.824;2024-02-16T17:17:53;14.44;;;12.68;;
56593;SDS011;42474;51.660;5.824;2024-02-16T17:21:53;15.44;;;13.48;;
56593;SDS011;42474;51.660;5.824;2024-02-16T17:25:52;16.86;;;14.46;;
56593;SDS011;42474;51.660;5.824;2024-02-16T17:29:54;16.19;;;13.63;;
56593;SDS011;42474;51.660;5.824;2024-02-16T17:34:09;16.58;;;14.57;;
56593;SDS011;42474;51.660;5.824;2024-02-16T17:37:54;17.28;;;14.85;;
56593;SDS011;42474;51.660;5.824;2024-02-16T17:41:53;14.66;;;12.57;;
56593;SDS011;42474;51.660;5.824;2024-02-16T17:45:53;15.77;;;13.57;;
56593;SDS011;42474;51.660;5.824;2024-02-16T17:49:53;15.4;;;13.07;;
56593;SDS011;42474;51.660;5.824;2024-02-16T17:53:53;17.23;;;13.85;;
56593;SDS011;42474;51.660;5.824;2024-02-16T17:57:53;15.31;;;13.25;;
56593;SDS011;42474;51.660;5.824;2024-02-16T18:01:54;17.18;;;13.89;;
56593;SDS011;42474;51.660;5.824;2024-02-16T18:05:53;17.54;;;14.26;;
56593;SDS011;42474;51.660;5.824;2024-02-16T18:09:53;18.61;;;15.05;;
56593;SDS011;42474;51.660;5.824;2024-02-16T18:13:52;21.29;;;16.71;;
56593;SDS011;42474;51.660;5.824;2024-02-16T18:17:52;19.14;;;15.11;;
56593;SDS011;42474;51.660;5.824;2024-02-16T18:21:53;18.21;;;14.5;;
56593;SDS011;42474;51.660;5.824;2024-02-16T18:25:53;19.59;;;16.26;;
56593;SDS011;42474;51.660;5.824;2024-02-16T18:29:53;18.56;;;15.29;;
56593;SDS011;42474;51.660;5.824;2024-02-16T18:33:54;18.22;;;15.18;;
56593;SDS011;42474;51.660;5.824;2024-02-16T18:37:53;22.04;;;15.76;;
56593;SDS011;42474;51.660;5.824;2024-02-16T18:41:53;19.62;;;16.36;;
56593;SDS011;42474;51.660;5.824;2024-02-16T18:45:53;17.39;;;14.7;;
56593;SDS011;42474;51.660;5.824;2024-02-16T18:49:53;20.7;;;15.59;;
56593;SDS011;42474;51.660;5.824;2024-02-16T18:53:53;19.81;;;16.78;;
56593;SDS011;42474;51.660;5.824;2024-02-16T18:57:55;18.95;;;16.35;;
56593;SDS011;42474;51.660;5.824;2024-02-16T19:01:52;20.5;;;17.13;;
56593;SDS011;42474;51.660;5.824;2024-02-16T19:05:52;18.17;;;15.04;;
56593;SDS011;42474;51.660;5.824;2024-02-16T19:09:52;22.98;;;16.25;;
56593;SDS011;42474;51.660;5.824;2024-02-16T19:13:52;19.34;;;15.7;;
56593;SDS011;42474;51.660;5.824;2024-02-16T19:17:53;21.17;;;15.07;;
56593;SDS011;42474;51.660;5.824;2024-02-16T19:21:52;19.6;;;15.63;;
56593;SDS011;42474;51.660;5.824;2024-02-16T19:25:52;21.03;;;16.17;;
56593;SDS011;42474;51.660;5.824;2024-02-16T19:29:52;22.51;;;15.73;;
56593;SDS011;42474;51.660;5.824;2024-02-16T19:33:52;22.33;;;16.45;;
56593;SDS011;42474;51.660;5.824;2024-02-16T19:37:52;23.39;;;16.24;;
56593;SDS011;42474;51.660;5.824;2024-02-16T19:41:52;24.45;;;17.39;;
56593;SDS011;42474;51.660;5.824;2024-02-16T19:45:52;22.11;;;16.83;;
56593;SDS011;42474;51.660;5.824;2024-02-16T19:49:52;21.81;;;15;;
56593;SDS011;42474;51.660;5.824;2024-02-16T19:57:52;17.64;;;12.96;;
56593;SDS011;42474;51.660;5.824;2024-02-16T20:01:52;16.55;;;12.6;;
56593;SDS011;42474;51.660;5.824;2024-02-16T20:05:53;17.01;;;12.56;;
56593;SDS011;42474;51.660;5.824;2024-02-16T20:09:52;16.95;;;10.88;;
56593;SDS011;42474;51.660;5.824;2024-02-16T20:13:52;18.07;;;12.42;;
56593;SDS011;42474;51.660;5.824;2024-02-16T20:17:52;15.56;;;11.1;;
56593;SDS011;42474;51.660;5.824;2024-02-16T20:21:52;18.71;;;12.25;;
56593;SDS011;42474;51.660;5.824;2024-02-16T20:25:52;14.99;;;11.74;;
56593;SDS011;42474;51.660;5.824;2024-02-16T20:29:52;16.42;;;12.51;;
56593;SDS011;42474;51.660;5.824;2024-02-16T20:33:52;19.21;;;12.42;;
56593;SDS011;42474;51.660;5.824;2024-02-16T20:37:52;17.68;;;12.18;;
56593;SDS011;42474;51.660;5.824;2024-02-16T20:41:52;17.24;;;11.53;;
56593;SDS011;42474;51.660;5.824;2024-02-16T20:45:52;17.42;;;10.52;;
56593;SDS011;42474;51.660;5.824;2024-02-16T20:49:52;16.71;;;11.37;;
56593;SDS011;42474;51.660;5.824;2024-02-16T20:53:52;17.98;;;10.64;;
56593;SDS011;42474;51.660;5.824;2024-02-16T20:57:52;14.27;;;9.58;;
56593;SDS011;42474;51.660;5.824;2024-02-16T21:01:52;21.26;;;9.87;;
56593;SDS011;42474;51.660;5.824;2024-02-16T21:05:52;15.02;;;9.18;;
56593;SDS011;42474;51.660;5.824;2024-02-16T21:09:53;15.43;;;10.41;;
56593;SDS011;42474;51.660;5.824;2024-02-16T21:13:52;14.7;;;9.42;;
56593;SDS011;42474;51.660;5.824;2024-02-16T21:17:52;18.08;;;10.52;;
56593;SDS011;42474;51.660;5.824;2024-02-16T21:25:52;17.13;;;10.67;;
56593;SDS011;42474;51.660;5.824;2024-02-16T21:29:52;19.32;;;10.61;;
56593;SDS011;42474;51.660;5.824;2024-02-16T21:33:52;16.64;;;9.77;;
56593;SDS011;42474;51.660;5.824;2024-02-16T21:37:52;16.44;;;11.24;;
56593;SDS011;42474;51.660;5.824;2024-02-16T21:41:52;18.72;;;12.24;;
56593;SDS011;42474;51.660;5.824;2024-02-16T21:45:52;19.91;;;13.34;;
56593;SDS011;42474;51.660;5.824;2024-02-16T21:49:52;18.74;;;12.16;;
56593;SDS011;42474;51.660;5.824;2024-02-16T21:53:52;17.79;;;12.05;;
56593;SDS011;42474;51.660;5.824;2024-02-16T21:57:52;22.01;;;13.02;;
56593;SDS011;42474;51.660;5.824;2024-02-16T22:01:52;21.17;;;13.7;;
56593;SDS011;42474;51.660;5.824;2024-02-16T22:05:52;18.73;;;13.59;;
56593;SDS011;42474;51.660;5.824;2024-02-16T22:09:52;18.95;;;13.25;;
56593;SDS011;42474;51.660;5.824;2024-02-16T22:13:52;21.42;;;12.91;;
56593;SDS011;42474;51.660;5.824;2024-02-16T22:17:52;24.55;;;12.86;;
56593;SDS011;42474;51.660;5.824;2024-02-16T22:21:52;18.84;;;11.47;;
56593;SDS011;42474;51.660;5.824;2024-02-16T22:25:52;18.78;;;12.34;;
56593;SDS011;42474;51.660;5.824;2024-02-16T22:29:52;19.7;;;11.68;;
56593;SDS011;42474;51.660;5.824;2024-02-16T22:33:52;21.47;;;12.17;;
56593;SDS011;42474;51.660;5.824;2024-02-16T22:37:52;20.51;;;12.29;;
56593;SDS011;42474;51.660;5.824;2024-02-16T22:41:52;22.64;;;11.23;;
56593;SDS011;42474;51.660;5.824;2024-02-16T22:45:53;18.02;;;11.65;;
56593;SDS011;42474;51.660;5.824;2024-02-16T22:49:52;20.49;;;12.67;;
56593;SDS011;42474;51.660;5.824;2024-02-16T22:53:52;27.14;;;13.07;;
56593;SDS011;42474;51.660;5.824;2024-02-16T22:57:52;25.57;;;14.71;;
56593;SDS011;42474;51.660;5.824;2024-02-16T23:01:52;22.55;;;13.43;;
56593;SDS011;42474;51.660;5.824;2024-02-16T23:05:53;22.65;;;12.13;;
56593;SDS011;42474;51.660;5.824;2024-02-16T23:09:52;20.48;;;12.64;;
56593;SDS011;42474;51.660;5.824;2024-02-16T23:13:52;26.55;;;13.65;;
56593;SDS011;42474;51.660;5.824;2024-02-16T23:17:53;22.34;;;13.42;;
56593;SDS011;42474;51.660;5.824;2024-02-16T23:21:52;22.54;;;14.58;;
56593;SDS011;42474;51.660;5.824;2024-02-16T23:25:52;26.87;;;15.01;;
56593;SDS011;42474;51.660;5.824;2024-02-16T23:29:52;26.48;;;15.13;;
56593;SDS011;42474;51.660;5.824;2024-02-16T23:33:52;29.24;;;15.62;;
56593;SDS011;42474;51.660;5.824;2024-02-16T23:37:52;29.5;;;17.06;;
56593;SDS011;42474;51.660;5.824;2024-02-16T23:41:52;30.59;;;17.31;;
56593;SDS011;42474;51.660;5.824;2024-02-16T23:45:52;27.51;;;17.12;;
56593;SDS011;42474;51.660;5.824;2024-02-16T23:49:52;28.57;;;17.73;;
56593;SDS011;42474;51.660;5.824;2024-02-16T23:53:52;32.71;;;18.77;;
56593;SDS011;42474;51.660;5.824;2024-02-16T23:57:52;34.6;;;18.44;;
